Tiempo atmosférico en la estación meteorológica de Cádiz, Cadiz (1 m.)



Fecha
DESCASC
Temp. máxima en grados centígrados (hora)
DESCASC
Temp. mínima en grados centígrados (hora)
DESCASC
Temp. media en grados centígrados
DESCASC
Racha de viento máxima en m/sg (hora)
DESCASC
Velocidad máxima media en intervalos de 10 minutos(hora)
DESCASC
Precipitaciones diarias en mm
DESCASC
Precipitaciones de 00:00 a 06:00 en mm
DESCASC
Precipitaciones de 06:00 a 12:00 en mm
DESCASC
Precipitaciones de 12:00 a 18:00 en mm
DESCASC
Precipitaciones de 18:00 a 24:00 en mm
DESCASC
19-05-2019 20.7 (17:00) 16.1 (07:00) 18.4 11.39 (00:50) 7.22 (00:50) 0 0 0 0 0
18-05-2019 19.9 (18:10) 14.8 (07:40) 17.3 13.33 (19:40) 8.06 (20:20) 0 0 0 0 0
17-05-2019 21.4 (00:00) 14.5 (08:30) 17.9 14.44 (00:10) 8.89 (00:10) 0 0 0 0 0
16-05-2019 23.2 (17:00) 18.5 (00:00) 20.9 10 (23:59) 6.94 (23:59) 0 0 0 0 0
15-05-2019 25.4 (16:20) 16.6 (00:00) 21 11.94 (00:50) 8.89 (00:10) 0 0 0 0 0
14-05-2019 24.8 (16:40) 19.1 (00:00) 21.9 20.28 (10:00) 14.72 (13:30) 0 0 0 0 0
13-05-2019 27.1 (17:30) 19.8 (00:00) 23.4 17.78 (22:40) 13.33 (23:20) 0 0 0 0 0
12-05-2019 26.5 (17:50) 21 (00:00) 23.8 21.94 (12:20) 16.67 (12:20) 0 0 0 0 0
11-05-2019 29.7 (15:10) 18.8 (00:00) 24.3 9.17 (06:10) 7.5 (06:00) 0 0 0 0 0
10-05-2019 23.5 (16:10) 17.1 (00:00) 20.3 10 (16:50) 7.22 (17:00) 0 0 0 0 0
09-05-2019 22.1 (14:50) 17.8 (00:00) 19.9 7.22 (00:20) 4.44 (01:00) 0 0 0 0 0
08-05-2019 21.8 (16:30) 17.5 (00:00) 19.6 8.61 (17:20) 5.28 (15:30) 0 0 0 0 0
07-05-2019 21.3 (14:00) 16.2 (00:00) 18.8 8.33 (18:50) 5 (18:50) 0 0 0 0 0
06-05-2019 20 (13:50) 15.9 (00:00) 17.9 6.67 (16:00) 4.72 (17:10) 0 0 0 0 0
05-05-2019 20.6 (16:20) 16.3 (00:00) 18.4 7.22 (14:40) 4.44 (14:40) 0 0 0 0 0
04-05-2019 21 (15:10) 17.1 (00:00) 19.1 6.67 (10:50) 3.89 (01:00) 0 0 0 0 0
03-05-2019 21.5 (11:20) 17.5 (00:00) 19.5 16.39 (01:20) 12.22 (01:10) 0 0 0 0 0
02-05-2019 24.3 (17:50) 16.9 (07:10) 20.6 17.78 (20:20) 12.5 (18:20) 0 0 0 0 0
01-05-2019 25.1 (16:30) 16.6 (00:00) 20.9 13.33 (03:30) 10.28 (03:30) 0 0 0 0 0
30-04-2019 24.7 (13:00) 16.7 (00:00) 20.7 10 (04:50) 7.5 (04:50) 0 0 0 0 0
29-04-2019 24.9 (18:50) 15.5 (00:00) 20.2 12.22 (00:10) 9.44 (17:20) 0 0 0 0 0
28-04-2019 23.7 (16:00) 16.8 (00:00) 20.3 16.11 (12:10) 11.39 (18:10) 0 0 0 0 0
27-04-2019 23.7 (16:20) 13.3 (00:00) 18.5 16.67 (19:20) 12.5 (19:50) 0 0 0 0 0
26-04-2019 21 (19:00) 11.8 (00:00) 16.4 9.44 (01:30) 7.5 (03:20) 0 0 0 0 0
25-04-2019 19.4 (15:00) 14.9 (00:00) 17.1 12.78 (01:10) 6.94 (04:30) 1.4 0.7 0.7 0 0
24-04-2019 18.9 (17:50) 13.8 (00:00) 16.3 13.61 (18:20) 8.33 (16:00) 0 0 0 0 0
23-04-2019 17.5 (16:30) 12.5 (00:00) 15 13.89 (05:40) 8.33 (05:40) 3.3 1.4 1.9 0 0

Gráficas

Temp. máximas Temp. mínimas Temp. medias Precipitaciones Rachas de viento máximas Velocidades máximas media en intervalos de 10 minutos

Datos horarios

Fecha y hora oficial Temperatura (ºC) Velocidad del viento (km/h) Dirección del viento Racha (km/h) Dirección de racha Precipitación (mm) Presión (hPa) Tendencia (hPa) Humedad (%)
2019-05-22 23:00:00 19.9 9 Norte 11 Norte 0 1016.5 0.9 78
2019-05-22 22:00:00 20 0 Calma 17 Noroeste 0 1016.2 0.5 77
2019-05-22 21:00:00 21 11 Noroeste 18 Oeste 0 1015.9 0.1 74
2019-05-22 20:00:00 22 10 Oeste 19 Oeste 0 1015.6 -0.3 71
2019-05-22 19:00:00 22.3 10 Oeste 23 Oeste 0 1015.7 -0.4 69
2019-05-22 18:00:00 22.7 12 Oeste 19 Oeste 0 1015.8 -0.6 67
2019-05-22 17:00:00 22.4 13 Oeste 21 Oeste 0 1015.9 -0.7 68
2019-05-22 16:00:00 22.1 15 Oeste 24 Oeste 0 1016.1 -0.5 69
2019-05-22 15:00:00 23.3 15 Oeste 23 Oeste 0 1016.4 -0.2 65
2019-05-22 14:00:00 22.9 14 Oeste -- -- 0 1016.6 0.1 65
2019-05-22 13:00:00 23.2 13 Oeste 18 Oeste 0 1016.6 0.2 62
2019-05-22 12:00:00 23.7 5 Sudoeste 18 Sudeste 0 1016.6 0.7 56
2019-05-22 11:00:00 22.3 9 Sudeste 16 Sudeste 0 1016.5 0.9 63
2019-05-22 10:00:00 20 9 Sudeste 17 Sudeste 0 1016.4 1.5 69
2019-05-22 09:00:00 18.6 14 Sudeste 24 Sudeste 0 1015.9 1.1 74
2019-05-22 08:00:00 17.5 17 Sudeste 21 Sudeste 0 1015.6 0.3 77
2019-05-22 07:00:00 17.3 8 Sudeste 13 Sudeste 0 1014.9 -0.5 87
2019-05-22 06:00:00 17.6 5 Sur 14 Sudeste 0 1014.8 -0.6 87
2019-05-22 05:00:00 17.5 12 Sudeste 19 Sudeste 0 1015.3 -0.3 88
2019-05-22 04:00:00 17.9 15 Sudeste 18 Sudeste 0 1015.4 -0.2 87
2019-05-22 03:00:00 19 6 Noroeste 10 Noroeste 0 1015.4 -0.5 82
2019-05-22 02:00:00 18.9 4 Noroeste 12 Noroeste 0 1015.6 0 80
2019-05-22 01:00:00 18.8 5 Oeste 12 Noroeste 0 1015.6 0.5 81
2019-05-22 00:00:00 18.9 6 Oeste 19 Oeste 0 1015.9 1.2 81
2019-05-21 23:00:00 18.8 14 Oeste 25 Oeste 0 1015.6 1.1 82
2019-05-21 22:00:00 18.9 17 Oeste 27 Oeste 0 1015.1 0.8 82
2019-05-21 21:00:00 20.1 16 Oeste 30 Oeste 0 1014.7 0.2 75
2019-05-21 20:00:00 20.7 17 Oeste 30 Oeste 0 1014.5 -0.4 72
2019-05-21 19:00:00 20.6 20 Oeste 31 Oeste 0 1014.3 -1.1 72
2019-05-21 18:00:00 21.4 22 Oeste 32 Oeste 0 1014.5 -1.1 67
2019-05-21 17:00:00 21.1 16 Oeste 30 Oeste 0 1014.9 -0.6 68
2019-05-21 16:00:00 20.2 19 Oeste 32 Noroeste 0 1015.4 -0.3 71
2019-05-21 15:00:00 20.3 19 Oeste 31 Oeste 0 1015.6 -0.1 68
2019-05-21 14:00:00 19.9 18 Oeste 28 Oeste 0 1015.5 -0.2 71
2019-05-21 13:00:00 20 15 Oeste 22 Oeste 0 1015.7 0.4 68
2019-05-21 12:00:00 19.9 9 Oeste 20 Oeste 0 1015.7 0.7 68
2019-05-21 11:00:00 20 5 Noroeste 12 Noroeste 0 1015.7 1 70
2019-05-21 10:00:00 18.2 9 Norte 17 Norte 0 1015.3 1.3 76
2019-05-21 09:00:00 17.5 13 Norte 17 Norte 0 1015 1.3 78
2019-05-21 08:00:00 17.7 12 Noroeste 17 Noroeste 0 1014.7 0.8 78
2019-05-21 07:00:00 17.6 13 Noroeste 18 Noroeste 0 1014 0.3 77
2019-05-21 06:00:00 17.9 13 Noroeste 20 Noroeste 0 1013.7 -0.2 76
2019-05-21 05:00:00 18.1 14 Noroeste 24 Noroeste 0 1013.9 -0.2 74
2019-05-21 04:00:00 18.3 14 Noroeste 25 Noroeste 0 1013.7 -0.3 73
2019-05-21 03:00:00 18.8 15 Noroeste 24 Noroeste 0 1013.9 -0.3 72
2019-05-21 02:00:00 19.4 15 Noroeste 29 Noroeste 0 1014.1 0 72
2019-05-21 01:00:00 18.8 13 Oeste 24 Oeste 0 1014 0.7 81
2019-05-21 00:00:00 18.6 15 Oeste 24 Oeste 0 1014.2 1.2 80
2019-05-20 23:00:00 18.9 15 Oeste 24 Oeste 0 1014.1 1.3 76
2019-05-20 22:00:00 19 16 Oeste 31 Oeste 0 1013.3 0.4 73
2019-05-20 21:00:00 19.5 18 Oeste 34 Oeste 0 1013 0 63
2019-05-20 20:00:00 20.6 22 Oeste 33 Oeste 0 1012.8 -0.5 69
2019-05-20 19:00:00 21.3 19 Oeste 31 Oeste 0 1012.9 -0.9 48
2019-05-20 18:00:00 21.6 18 Oeste 26 Oeste 0 1013 -1.1 43
2019-05-20 17:00:00 20.9 17 Oeste 26 Oeste 0 1013.3 -1 45
2019-05-20 16:00:00 20.2 18 Oeste 27 Oeste 0 1013.8 -0.4 51
2019-05-20 15:00:00 20.4 16 Oeste 26 Oeste 0 1014.1 -0.1 53
2019-05-20 14:00:00 21.1 17 Oeste 24 Oeste 0 1014.3 0.4 51
2019-05-20 13:00:00 19.6 15 Oeste 23 Oeste 0 1014.2 0.6 64
2019-05-20 12:00:00 19.2 16 Noroeste 20 Noroeste 0 1014.2 0.9 71
2019-05-20 11:00:00 19.6 10 Oeste 16 Oeste 0 1013.9 1.2 70
2019-05-20 10:00:00 17.9 14 Norte 18 Noroeste 0 1013.6 1.3 70
2019-05-20 09:00:00 17.6 15 Noroeste 18 Noroeste 0 1013.3 1.2 71
2019-05-20 08:00:00 17.8 4 Noroeste 10 Noroeste 0 1012.7 0.4 78
2019-05-20 07:00:00 17.3 4 Oeste 13 Noroeste 0 1012.3 -0.1 78
2019-05-20 06:00:00 17.9 9 Noroeste 18 Noroeste 0 1012.1 -1.1 77
2019-05-20 05:00:00 18.1 12 Noroeste 22 Oeste 0 1012.3 -1.3 78
2019-05-20 04:00:00 18.3 14 Noroeste 23 Noroeste 0 1012.4 -1.5 78
2019-05-20 03:00:00 18 10 Oeste 16 Oeste 0 1013.2 -0.9 87
2019-05-20 02:00:00 18.3 9 Sudoeste 15 Sur 0 1013.6 -0.3 87
2019-05-20 01:00:00 18.4 8 Sur 17 Sudoeste 0 1013.9 0.5 86
2019-05-20 00:00:00 18.3 10 Oeste 24 Oeste 0 1014.1 0.8 84
2019-05-19 23:00:00 18.3 13 Oeste 30 Oeste 0 1013.9 0.8 84
2019-05-19 22:00:00 18.5 21 Oeste 32 Oeste 0 1013.4 0.1 84
2019-05-19 21:00:00 18.4 20 Oeste 32 Sudoeste 0 1013.3 -0.3 81
2019-05-19 20:00:00 18.9 19 Oeste 41 Sudoeste 0 1013.1 -0.9 77
2019-05-19 19:00:00 20 21 Oeste 39 Oeste 0 1013.3 -1.3 69
2019-05-19 18:00:00 20.1 22 Sudoeste 35 Sudoeste 0 1013.6 -1.4 65
2019-05-19 17:00:00 20.3 19 Sudoeste 33 Oeste 0 1014 -0.7 62
2019-05-19 16:00:00 19.7 19 Oeste 32 Sudoeste 0 1014.6 -0.5 59
2019-05-19 15:00:00 19.7 18 Oeste 29 Oeste 0 1015 -0.4 59
2019-05-19 14:00:00 19.3 15 Oeste 29 Oeste 0 1014.7 -0.4 59
2019-05-19 13:00:00 18.4 15 Oeste 28 Oeste 0 1015.1 0.1 60
2019-05-19 12:00:00 17.5 21 Noroeste 33 Noroeste 0 1015.4 1 60
2019-05-19 11:00:00 17 22 Noroeste 33 Oeste 0 1015.1 0.9 61
2019-05-19 10:00:00 16.5 23 Noroeste 36 Noroeste 0 1015 1.1 64
2019-05-19 09:00:00 16.6 18 Noroeste 34 Noroeste 0 1014.4 0.5 63
2019-05-19 08:00:00 16.1 17 Noroeste 32 Noroeste 0 1014.2 0.2 66
2019-05-19 07:00:00 16.4 17 Noroeste 30 Noroeste 0 1013.9 -0.1 69
2019-05-19 06:00:00 16.3 20 Noroeste 33 Noroeste 0 1013.9 -0.2 68
2019-05-19 05:00:00 16.9 19 Noroeste 32 Noroeste 0 1014 -0.4 66
2019-05-19 04:00:00 17.1 21 Noroeste 36 Oeste 0 1014 -0.5 65
2019-05-19 03:00:00 17.3 19 Noroeste 38 Noroeste 0 1014.1 -0.6 66
2019-05-19 02:00:00 18.2 22 Noroeste 36 Noroeste 0 1014.4 -0.3 57
2019-05-19 01:00:00 18.8 22 Noroeste 41 Noroeste 0 1014.5 0.1 57
2019-05-19 00:00:00 19.1 18 Noroeste 25 Noroeste 0 1014.7 0.3 61
2019-05-18 23:00:00 18.5 11 Oeste 32 Oeste 0 1014.7 0.8 73
2019-05-18 22:00:00 18.1 21 Oeste 39 Oeste 0 1014.4 0.5 72
2019-05-18 21:00:00 18.2 25 Oeste 45 Oeste 0 1014.4 0.5 68
2019-05-18 20:00:00 18.9 26 Oeste 48 Oeste 0 1013.9 -0.2 60
2019-05-18 19:00:00 19.1 24 Oeste 46 Oeste 0 1013.9 -0.6 57
2019-05-18 18:00:00 19.3 24 Oeste 43 Oeste 0 1013.9 -0.7 57
2019-05-18 17:00:00 19.1 23 Oeste 40 Oeste 0 1014.1 -0.7 57
2019-05-18 16:00:00 19.3 22 Oeste 40 Oeste 0 1014.5 -0.5 52
2019-05-18 15:00:00 18.4 22 Oeste 36 Oeste 0 1014.6 -0.2 51
2019-05-18 14:00:00 17.9 25 Noroeste 36 Noroeste 0 1014.8 0.4 52
2019-05-18 13:00:00 17.5 24 Noroeste 35 Noroeste 0 1015 0.8 57
2019-05-18 12:00:00 17.1 23 Noroeste 34 Noroeste 0 1014.8 1 60
2019-05-18 11:00:00 16.7 18 Noroeste 30 Noroeste 0 1014.4 0.8 58
2019-05-18 10:00:00 16 23 Norte 37 Noroeste 0 1014.2 1 63
2019-05-18 09:00:00 15.5 25 Noroeste 33 Noroeste 0 1013.8 0.9 64
2019-05-18 08:00:00 15.1 24 Noroeste 45 Noroeste 0 1013.6 0.8 64
2019-05-18 07:00:00 15.2 23 Noroeste 36 Noroeste 0 1013.2 0.2 63
2019-05-18 06:00:00 15.8 21 Noroeste 32 Noroeste 0 1012.9 -0.3 61
2019-05-18 05:00:00 16.1 21 Noroeste 34 Norte 0 1012.8 -0.6 61
2019-05-18 04:00:00 17 24 Noroeste 35 Noroeste 0 1013 -0.3 61
2019-05-18 03:00:00 17.8 24 Noroeste 35 Noroeste 0 1013.2 -0.6 57
2019-05-18 02:00:00 18.5 26 Noroeste 41 Noroeste 0 1013.4 -0.5 57
2019-05-18 01:00:00 19 15 Noroeste 28 Noroeste 0 1013.3 -0.1 63
2019-05-18 00:00:00 18.4 12 Oeste 31 Oeste 0 1013.8 0.3 79
2019-05-17 23:00:00 18.1 21 Oeste 36 Oeste 0 1013.9 0.5 75
2019-05-17 22:00:00 18 22 Oeste 41 Oeste 0 1013.4 -0.2 69
2019-05-17 21:00:00 18.1 24 Oeste 44 Oeste 0 1013.5 -0.5 65
2019-05-17 20:00:00 19.1 26 Oeste 41 Oeste 0 1013.4 -1 59
2019-05-17 19:00:00 19.2 25 Oeste 39 Oeste 0 1013.6 -1.2 59
2019-05-17 18:00:00 19.9 24 Oeste 43 Oeste 0 1014 -1.1 54
2019-05-17 17:00:00 19.7 26 Oeste 45 Oeste 0 1014.4 -1.1 55
2019-05-17 16:00:00 19.3 22 Oeste 35 Oeste 0 1014.8 -0.8 56
2019-05-17 15:00:00 19.5 15 Oeste 34 Noroeste 0 1015.1 -0.2 50
2019-05-17 14:00:00 18.3 20 Oeste 30 Oeste 0 1015.5 0.2 53
2019-05-17 13:00:00 17.6 18 Oeste 28 Oeste 0 1015.6 0.7 57
2019-05-17 12:00:00 17.5 13 Noroeste 24 Noroeste 0 1015.3 0.9 58
2019-05-17 11:00:00 16.6 18 Noroeste 26 Noroeste 0 1015.3 1.2 58
2019-05-17 10:00:00 15.9 23 Noroeste 38 Noroeste 0 1014.9 1.2 64
2019-05-17 09:00:00 14.8 25 Noroeste 40 Noroeste 0 1014.4 1.3 66
2019-05-17 08:00:00 15 28 Noroeste 35 Noroeste 0 1014.1 0.9 65
2019-05-17 07:00:00 15 19 Noroeste 35 Norte 0 1013.7 0.6 60
2019-05-17 06:00:00 15.5 21 Noroeste 37 Noroeste 0 1013.1 0.6 61
2019-05-17 05:00:00 16.2 25 Noroeste 42 Noroeste 0 1013.2 0.7 63
2019-05-17 04:00:00 16.7 23 Noroeste 42 Noroeste 0 1013.1 1 64
2019-05-17 03:00:00 17.4 28 Noroeste 42 Noroeste 0 1012.5 1 64
2019-05-17 02:00:00 18.8 29 Noroeste 46 Noroeste 0 1012.5 1.2 60
2019-05-17 01:00:00 20.1 30 Noroeste 52 Noroeste 0 1012.1 1.4 61
2019-05-17 00:00:00 21.4 25 Noroeste 36 Noroeste 0 1011.5 1 65
2019-05-16 23:00:00 20.6 15 Noroeste 30 Oeste 0 1011.3 0.9 75
2019-05-16 22:00:00 19.6 18 Oeste 30 Oeste 0 1010.7 -0.1 79
2019-05-16 21:00:00 20 20 Oeste 31 Oeste 0 1010.5 -0.4 76
2019-05-16 20:00:00 21.4 17 Oeste 29 Sudoeste 0 1010.4 -0.9 73
2019-05-16 19:00:00 21.5 15 Sudoeste 27 Oeste 0 1010.8 -1 71
2019-05-16 18:00:00 21.6 19 Sudoeste 28 Sudoeste 0 1010.9 -1.2 69
2019-05-16 17:00:00 23.2 13 Sudoeste 27 Sudoeste 0 1011.3 -1.1 58
2019-05-16 16:00:00 22.2 13 Sudoeste 23 Sudoeste 0 1011.8 -0.8 54
2019-05-16 15:00:00 22.2 11 Sudoeste 21 Sudoeste 0 1012.1 -0.4 56
2019-05-16 14:00:00 22 9 Sudoeste 19 Sudoeste 0 1012.4 0.2 55
2019-05-16 13:00:00 22.1 11 Sudoeste 22 Oeste 0 1012.6 0.9 61
2019-05-16 12:00:00 21.4 13 Oeste 19 Sudoeste 0 1012.5 1.5 63
2019-05-16 11:00:00 20.9 10 Sudoeste 16 Oeste 0 1012.2 1.9 65
2019-05-16 10:00:00 20.8 0 Calma 12 Noroeste 0 1011.7 1.8 67
2019-05-16 09:00:00 19.6 9 Noroeste 15 Noroeste 0 1011 1.2 74
2019-05-16 08:00:00 19.4 8 Noroeste 13 Noroeste 0 1010.3 0.5 79
2019-05-16 07:00:00 19.1 8 Noroeste 12 Oeste 0 1009.9 0 84
2019-05-16 06:00:00 18.6 5 Oeste 9 Oeste 0 1009.8 -0.4 87
2019-05-16 05:00:00 19.1 5 Sur 11 Sur 0 1009.8 -0.7 89
2019-05-16 04:00:00 19.2 6 Sur 13 Sur 0 1009.9 -0.9 89
2019-05-16 03:00:00 19.5 8 Sur 16 Sur 0 1010.2 -0.7 87
2019-05-16 02:00:00 19.8 10 Sur 19 Sur 0 1010.5 -0.2 85
2019-05-16 01:00:00 20 8 Sur 14 Sudeste 0 1010.8 0.4 82
2019-05-16 00:00:00 20.4 6 Sur 12 Sur 0 1010.9 0.6 79
2019-05-15 23:00:00 21 4 Sur 8 Sur 0 1010.7 0.5 72
2019-05-15 22:00:00 21.5 7 Sur 20 Oeste 0 1010.4 0.1 63
2019-05-15 21:00:00 22.8 15 Oeste 26 Oeste 0 1010.3 -0.3 54
2019-05-15 20:00:00 23.5 16 Oeste 30 Oeste 0 1010.2 -0.6 59
2019-05-15 19:00:00 23.5 11 Oeste 28 Noroeste 0 1010.3 -1.1 55
2019-05-15 18:00:00 24.7 16 Oeste 32 Oeste 0 1010.6 -1.4 56
2019-05-15 17:00:00 24.2 15 Oeste 22 Oeste 0 1010.8 -1.7 49
2019-05-15 16:00:00 24.6 12 Noroeste 21 Oeste 0 1011.4 -1.7 47
2019-05-15 15:00:00 23.8 16 Noroeste 22 Noroeste 0 1012 -1.1 50
2019-05-15 14:00:00 23.3 14 Oeste 20 Noroeste 0 1012.5 -0.6 50
2019-05-15 13:00:00 22.8 14 Oeste 19 Oeste 0 1013.1 0.2 50
2019-05-15 12:00:00 23.3 8 Noroeste 15 Norte 0 1013.1 0.3 51
2019-05-15 11:00:00 21.2 12 Norte 14 Norte 0 1013.1 0.7 54
2019-05-15 10:00:00 20.3 11 Norte 15 Norte 0 1012.9 0.7 54
2019-05-15 09:00:00 17.4 9 Norte 13 Nordeste 0 1012.8 0.8 62
2019-05-15 08:00:00 16.7 9 Norte 15 Nordeste 0 1012.4 0.2 60
2019-05-15 07:00:00 16.8 6 Norte 14 Nordeste 0 1012.2 -0.1 59
2019-05-15 06:00:00 17.5 8 Nordeste 15 Nordeste 0 1012 -0.8 55
2019-05-15 05:00:00 17.7 10 Nordeste 22 Este 0 1012.2 -0.9 54
2019-05-15 04:00:00 18.9 21 Este 31 Este 0 1012.3 -0.6 56
2019-05-15 03:00:00 19 14 Este 27 Este 0 1012.8 -0.2 55
2019-05-15 02:00:00 19.4 16 Este 37 Sudeste 0 1013.1 -0.2 53
2019-05-15 01:00:00 19.9 31 Este 43 Este 0 1012.9 -0.1 51
2019-05-15 00:00:00 20 33 Sudeste 45 Sudeste 0 1013 0.3 49
2019-05-14 23:00:00 20.6 24 Sudeste 38 Sudeste 0 1013.3 0.5 45
2019-05-14 22:00:00 21 29 Sudeste 46 Sudeste 0 1013 0.3 44
2019-05-14 21:00:00 21.9 36 Sudeste 53 Este 0 1012.7 -0.3 45
2019-05-14 20:00:00 23 34 Sudeste 53 Sudeste 0 1012.8 -0.6 44
2019-05-14 19:00:00 23.8 37 Sudeste 57 Este 0 1012.7 -0.9 44
2019-05-14 18:00:00 24.5 38 Este 51 Este 0 1013 -1.1 40
2019-05-14 17:00:00 24.8 35 Este 57 Sudeste 0 1013.4 -1.1 42
2019-05-14 16:00:00 24.2 44 Sudeste 58 Sudeste 0 1013.6 -0.7 42
2019-05-14 15:00:00 23.9 47 Sudeste 66 Sudeste 0 1014.1 -0.1 41
2019-05-14 14:00:00 23.5 51 Sudeste 70 Este 0 1014.5 0.4 42
2019-05-14 13:00:00 23.2 46 Este 67 Sudeste 0 1014.3 1.2 46
2019-05-14 12:00:00 22.3 48 Este 67 Sudeste 0 1014.2 1.3 47
2019-05-14 11:00:00 21.8 44 Este 68 Este 0 1014.1 1.1 49
2019-05-14 10:00:00 20.7 49 Este 73 Sudeste 0 1013.1 0.6 51
2019-05-14 09:00:00 20 52 Este 69 Sudeste 0 1012.9 0.2 50
2019-05-14 08:00:00 19.4 46 Este 63 Este 0 1013 0.2 51
2019-05-14 07:00:00 19.4 46 Sudeste 62 Este 0 1012.5 -0.5 49
2019-05-14 06:00:00 19.4 43 Sudeste 65 Este 0 1012.7 -0.8 49
2019-05-14 05:00:00 19.9 53 Este 71 Este 0 1012.8 -0.8 47
2019-05-14 04:00:00 20.1 53 Este 67 Este 0 1013 -0.7 48
2019-05-14 03:00:00 20.2 49 Sudeste 69 Este 0 1013.5 -0.1 51
2019-05-14 02:00:00 20.1 50 Sudeste 71 Sudeste 0 1013.6 0.2 54
2019-05-14 01:00:00 19.8 49 Sudeste 67 Sudeste 0 1013.7 0.8 61
2019-05-14 00:00:00 20 46 Sudeste 63 Sudeste 0 1013.6 0.7 60
2019-05-13 23:00:00 20.2 44 Sudeste 64 Sudeste 0 1013.4 1 55
2019-05-13 22:00:00 21.3 35 Sudeste 51 Este 0 1012.9 0.6 53
2019-05-13 21:00:00 23.7 17 Este 36 Este 0 1012.9 0.4 48
2019-05-13 20:00:00 25.4 24 Sudeste 31 Sudeste 0 1012.4 -0.5 47
2019-05-13 19:00:00 26.5 24 Sudeste 30 Sudeste 0 1012.3 -1 46
2019-05-13 18:00:00 26.6 24 Sudeste 30 Sudeste 0 1012.5 -1.6 45
2019-05-13 17:00:00 26.5 27 Sudeste 42 Sudeste 0 1012.9 -1.9 44
2019-05-13 16:00:00 26.1 35 Sudeste 48 Sudeste 0 1013.3 -2.1 43
2019-05-13 15:00:00 25.7 35 Sudeste 49 Sudeste 0 1014.1 -1.4 43
2019-05-13 14:00:00 25.4 36 Este 46 Este 0 1014.8 -0.5 39
2019-05-13 13:00:00 25.8 31 Este 43 Este 0 1015.4 0.3 39
2019-05-13 12:00:00 25.1 30 Este 49 Este 0 1015.5 0.4 41
2019-05-13 11:00:00 23.9 33 Este 44 Este 0 1015.3 0.2 42
2019-05-13 10:00:00 22.9 32 Este 50 Este 0 1015.1 -0.1 42
2019-05-13 09:00:00 21.7 35 Este 48 Este 0 1015.1 -0.1 42
2019-05-13 08:00:00 20.5 26 Este 36 Este 0 1015.1 -0.4 45
2019-05-13 07:00:00 20.3 17 Este 37 Este 0 1015.2 -0.6 47
2019-05-13 06:00:00 20.1 11 Este 34 Este 0 1015.2 -0.2 48
2019-05-13 05:00:00 20.2 12 Este 33 Este 0 1015.5 -0.1 48
2019-05-13 04:00:00 20.3 17 Este 46 Este 0 1015.8 0 49
2019-05-13 03:00:00 20.5 36 Este 51 Este 0 1015.4 -0.7 50
2019-05-13 02:00:00 20.8 38 Este 56 Este 0 1015.6 -0.7 49
2019-05-13 01:00:00 21 41 Este 57 Este 0 1015.8 0.1 49
2019-05-13 00:00:00 21.2 39 Este 53 Este 0 1016.1 0.5 50
2019-05-12 23:00:00 21.4 37 Este 55 Sudeste 0 1016.3 0.9 51
2019-05-12 22:00:00 22.5 42 Este 58 Este 0 1015.7 0 46
2019-05-12 21:00:00 23.4 43 Este 62 Sudeste 0 1015.6 -0.3 45
2019-05-12 20:00:00 24.6 47 Este 67 Este 0 1015.4 -1 43
2019-05-12 19:00:00 25.7 44 Este 64 Este 0 1015.7 -0.9 43
2019-05-12 18:00:00 26.2 47 Este 62 Este 0 1015.9 -1.1 41
2019-05-12 17:00:00 26.2 46 Este 69 Este 0 1016.4 -1 41
2019-05-12 16:00:00 26.3 53 Este 73 Este 0 1016.6 -0.8 41
2019-05-12 15:00:00 25.5 54 Este 76 Este 0 1017 0 44
2019-05-12 14:00:00 25.2 55 Este 77 Este 0 1017.4 0.6 46
2019-05-12 13:00:00 24.8 51 Este 79 Este 0 1017.4 0.8 51
2019-05-12 12:00:00 24.5 54 Este 78 Este 0 1017 0.7 50
2019-05-12 11:00:00 24.3 48 Sudeste 72 Este 0 1016.8 0.4 52
2019-05-12 10:00:00 23.7 54 Este 76 Este 0 1016.6 0.6 53
2019-05-12 09:00:00 23 51 Este 72 Este 0 1016.3 0.1 55
2019-05-12 08:00:00 22 44 Este 61 Este 0 1016.4 0.4 62
2019-05-12 07:00:00 21.8 45 Este 65 Este 0 1016 0.5 63
2019-05-12 06:00:00 22 36 Este 52 Este 0 1016.2 0.3 63
2019-05-12 05:00:00 22 32 Este 58 Sudeste 0 1016 -0.4 64
2019-05-12 04:00:00 22.8 44 Este 59 Sudeste 0 1015.5 -0.9 59
2019-05-12 03:00:00 23.7 38 Este 53 Este 0 1015.9 -0.5 54
2019-05-12 02:00:00 23.9 31 Este 45 Este 0 1016.4 0 55
2019-05-12 01:00:00 23.7 27 Sudeste 36 Este 0 1016.4 0.6 57
2019-05-12 00:00:00 23.9 13 Sudeste 17 Sudeste 0 1016.4 1 59
2019-05-11 23:00:00 23.1 0 Calma 8 Sur 0 1016.4 1.6 68
2019-05-11 22:00:00 25.4 3 Sudeste 7 Oeste 0 1015.8 0.9 51
2019-05-11 21:00:00 27.5 4 Oeste 12 Noroeste 0 1015.4 0.2 45
2019-05-11 20:00:00 26.6 9 Oeste 21 Noroeste 0 1014.8 -0.5 47
2019-05-11 19:00:00 26.3 16 Noroeste 22 Oeste 0 1014.9 -0.4 47
2019-05-11 18:00:00 27.8 9 Oeste 18 Oeste 0 1015.2 -0.6 44
2019-05-11 17:00:00 28.5 5 Noroeste 24 Oeste 0 1015.3 -0.8 45
2019-05-11 16:00:00 27.4 17 Oeste 21 Oeste 0 1015.3 -1.4 48
2019-05-11 15:00:00 29 11 Noroeste 22 Norte 0 1015.8 -1.2 45
2019-05-11 14:00:00 27 14 Norte 25 Norte 0 1016.1 -1 53
2019-05-11 13:00:00 25.5 17 Norte 21 Norte 0 1016.7 -0.4 59
2019-05-11 12:00:00 24.1 13 Norte 23 Norte 0 1017 0.3 62
2019-05-11 11:00:00 22.6 18 Norte 25 Norte 0 1017.1 0.9 62
2019-05-11 10:00:00 21 19 Norte 28 Norte 0 1017.1 1.4 68
2019-05-11 09:00:00 19.4 21 Norte 27 Norte 0 1016.7 1 75
2019-05-11 08:00:00 19.5 15 Norte 28 Norte 0 1016.2 0.6 77
2019-05-11 07:00:00 20 17 Norte 33 Noroeste 0 1015.7 -0.2 74
2019-05-11 06:00:00 18.8 27 Noroeste 33 Noroeste 0 1015.7 -0.1 78
2019-05-11 05:00:00 19.6 23 Noroeste 30 Noroeste 0 1015.6 -0.5 76
2019-05-11 04:00:00 20 24 Noroeste 32 Noroeste 0 1015.9 -0.2 74
2019-05-11 03:00:00 20.6 23 Noroeste 30 Norte 0 1015.8 -0.3 73
2019-05-11 02:00:00 21.1 24 Noroeste 31 Norte 0 1016.1 0.2 71
2019-05-11 01:00:00 21.6 18 Noroeste 30 Noroeste 0 1016.1 0.5 71
2019-05-11 00:00:00 22.4 21 Noroeste 28 Noroeste 0 1016.1 1.1 67
2019-05-10 23:00:00 21.8 22 Noroeste 31 Noroeste 0 1015.9 1.3 72
2019-05-10 22:00:00 21.1 17 Noroeste 29 Noroeste 0 1015.6 0.9 77
2019-05-10 21:00:00 21.2 19 Noroeste 31 Oeste 0 1015 0.2 76
2019-05-10 20:00:00 21.3 23 Oeste 36 Oeste 0 1014.6 -0.7 75
2019-05-10 19:00:00 21 26 Oeste 35 Oeste 0 1014.7 -0.7 75
2019-05-10 18:00:00 22.3 22 Noroeste 32 Noroeste 0 1014.8 -1.1 68
2019-05-10 17:00:00 22 26 Noroeste 36 Noroeste 0 1015.3 -1 69
2019-05-10 16:00:00 23.1 22 Noroeste 32 Noroeste 0 1015.4 -1.3 65
2019-05-10 15:00:00 21.8 25 Noroeste 33 Noroeste 0 1015.9 -0.7 69
2019-05-10 14:00:00 22 21 Oeste 27 Oeste 0 1016.3 -0.2 69
2019-05-10 13:00:00 21.7 18 Noroeste 26 Noroeste 0 1016.7 0.2 74
2019-05-10 12:00:00 21.2 13 Noroeste 19 Noroeste 0 1016.6 0.5 75
2019-05-10 11:00:00 19.9 9 Norte 12 Noroeste 0 1016.5 1 77
2019-05-10 10:00:00 18.8 3 Norte 12 Norte 0 1016.5 1.3 80
2019-05-10 09:00:00 17.7 6 Norte 17 Norte 0 1016.1 1 84
2019-05-10 08:00:00 17.2 10 Norte 18 Norte 0 1015.5 0.3 84
2019-05-10 07:00:00 17.9 15 Norte 21 Norte 0 1015.2 -0.2 83
2019-05-10 06:00:00 18.2 14 Noroeste 21 Noroeste 0 1015.1 -0.7 85
2019-05-10 05:00:00 18.3 14 Noroeste 23 Noroeste 0 1015.2 -0.9 84
2019-05-10 04:00:00 18.5 18 Norte 21 Norte 0 1015.4 -1 85
2019-05-10 03:00:00 18.8 8 Norte 12 Norte 0 1015.8 -0.5 87
2019-05-10 02:00:00 18.8 5 Nordeste 13 Noroeste 0 1016.1 -0.4 86
2019-05-10 01:00:00 18.9 8 Noroeste 23 Noroeste 0 1016.4 0.1 84
2019-05-10 00:00:00 18.7 15 Noroeste 24 Noroeste 0 1016.3 0.4 85
2019-05-09 23:00:00 18.8 16 Noroeste 22 Noroeste 0 1016.5 0.5 85
2019-05-09 22:00:00 19.1 14 Noroeste 19 Noroeste 0 1016.3 -0.1 84
2019-05-09 21:00:00 19.3 12 Oeste 19 Oeste 0 1015.9 -0.9 81
2019-05-09 20:00:00 19.9 12 Oeste 22 Oeste 0 1016 -1.2 76
2019-05-09 19:00:00 20 13 Oeste 19 Oeste 0 1016.4 -1.4 71
2019-05-09 18:00:00 20.6 12 Oeste 21 Oeste 0 1016.8 -1.1 70
2019-05-09 17:00:00 20.9 13 Oeste 23 Oeste 0 1017.2 -0.9 71
2019-05-09 16:00:00 21 12 Oeste 23 Oeste 0 1017.8 -0.4 69
2019-05-09 15:00:00 21.2 13 Oeste 20 Oeste 0 1017.9 -0.3 68
2019-05-09 14:00:00 21.6 9 Oeste 21 Oeste 0 1018.1 -0.3 68
2019-05-09 13:00:00 21.2 11 Oeste 20 Oeste 0 1018.2 0 69
2019-05-09 12:00:00 19.5 6 Oeste 16 Oeste 0 1018.2 0.3 75
2019-05-09 11:00:00 18.7 11 Oeste 21 Sudoeste 0 1018.4 1 77
2019-05-09 10:00:00 18.5 12 Oeste 20 Oeste 0 1018.2 1.2 77
2019-05-09 09:00:00 18.5 10 Oeste 19 Oeste 0 1017.9 0.8 82
2019-05-09 08:00:00 18.1 11 Oeste 23 Oeste 0 1017.4 0.1 85
2019-05-09 07:00:00 18.1 12 Oeste 22 Oeste 0 1017 -0.5 85
2019-05-09 06:00:00 17.8 14 Oeste 24 Oeste 0 1017.1 -0.3 86
2019-05-09 05:00:00 18 12 Oeste 21 Oeste 0 1017.3 -0.6 87
2019-05-09 04:00:00 18 14 Oeste 23 Oeste 0 1017.5 -0.8 87
2019-05-09 03:00:00 18.1 15 Oeste 23 Oeste 0 1017.4 -0.8 87
2019-05-09 02:00:00 17.9 15 Oeste 25 Oeste 0 1017.9 -0.2 87
2019-05-09 01:00:00 18.1 16 Oeste 26 Oeste 0 1018.3 0.5 85
2019-05-09 00:00:00 18.2 14 Oeste 25 Oeste 0 1018.2 0.6 84
2019-05-08 23:00:00 18.4 12 Oeste 21 Oeste 0 1018.1 0.6 81
2019-05-08 22:00:00 18.5 12 Oeste 24 Oeste 0 1017.8 0.1 77
2019-05-08 21:00:00 18.8 15 Sudoeste 28 Sudoeste 0 1017.6 0 73
2019-05-08 20:00:00 20.3 13 Oeste 25 Sudoeste 0 1017.5 -0.6 69
2019-05-08 19:00:00 20.4 15 Sudoeste 28 Oeste 0 1017.7 -0.7 69
2019-05-08 18:00:00 20.7 16 Sudoeste 31 Oeste 0 1017.6 -1.1 70
2019-05-08 17:00:00 21.1 15 Oeste 31 Oeste 0 1018.1 -0.4 69
2019-05-08 16:00:00 21.2 17 Oeste 29 Sudoeste 0 1018.4 -0.6 71
2019-05-08 15:00:00 21.1 15 Sudoeste 27 Sudoeste 0 1018.7 -0.2 71
2019-05-08 14:00:00 20.3 15 Sudoeste 25 Oeste 0 1018.5 -0.2 77
2019-05-08 13:00:00 20 13 Sudoeste 23 Sudoeste 0 1019 0.3 78
2019-05-08 12:00:00 19.4 14 Sudoeste 21 Sudoeste 0 1018.9 0.7 79
2019-05-08 11:00:00 19.3 10 Oeste 19 Oeste 0 1018.7 0.9 80
2019-05-08 10:00:00 18.4 11 Oeste 19 Oeste 0 1018.7 1.5 83
2019-05-08 09:00:00 18 12 Oeste 21 Oeste 0 1018.2 1.2 85
2019-05-08 08:00:00 17.8 10 Oeste 18 Oeste 0 1017.8 0.6 87
2019-05-08 07:00:00 17.6 8 Oeste 13 Oeste 0 1017.2 -0.3 85
2019-05-08 06:00:00 18.1 9 Noroeste 15 Noroeste 0 1017 -0.6 82
2019-05-08 05:00:00 18.4 12 Noroeste 24 Noroeste 0 1017.2 -0.5 81
2019-05-08 04:00:00 18.4 17 Noroeste 26 Noroeste 0 1017.5 -0.3 84
2019-05-08 03:00:00 18.4 10 Noroeste 17 Oeste 0 1017.6 -0.5 88
2019-05-08 02:00:00 18.1 10 Oeste 21 Oeste 0 1017.7 -0.4 86
2019-05-08 01:00:00 18.2 12 Oeste 21 Oeste 0 1017.8 0.5 84
2019-05-08 00:00:00 18.4 12 Oeste 22 Noroeste 0 1018.1 0.9 83
2019-05-07 23:00:00 18.5 15 Noroeste 27 Oeste 0 1018.1 1.2 84
2019-05-07 22:00:00 18.3 14 Oeste 23 Noroeste 0 1017.3 0.3 85
2019-05-07 21:00:00 18.7 13 Oeste 24 Oeste 0 1017.2 -0.1 79
2019-05-07 20:00:00 20 14 Oeste 26 Oeste 0 1016.9 -0.6 68
2019-05-07 19:00:00 20.5 16 Oeste 30 Oeste 0 1017 -1.1 65
2019-05-07 18:00:00 21 15 Sudoeste 26 Sudoeste 0 1017.3 -1.4 65
2019-05-07 17:00:00 20.7 17 Oeste 24 Oeste 0 1017.5 -1.5 67
2019-05-07 16:00:00 20.4 15 Oeste 25 Oeste 0 1018.1 -1.3 68
2019-05-07 15:00:00 20.6 14 Oeste 23 Oeste 0 1018.7 -0.7 66
2019-05-07 14:00:00 20.7 11 Sudoeste 20 Oeste 0 1019 -0.2 65
2019-05-07 13:00:00 20 8 Sudoeste 16 Sudoeste 0 1019.4 0.2 70
2019-05-07 12:00:00 20.1 8 Sur 17 Sur 0 1019.4 0.4 73
2019-05-07 11:00:00 19.5 8 Sur 15 Sur 0 1019.2 0.5 74
2019-05-07 10:00:00 18.4 9 Sur 17 Sudeste 0 1019.2 0.8 82
2019-05-07 09:00:00 16.9 10 Sudeste 15 Sur 0 1019 0.3 89
2019-05-07 08:00:00 16.3 10 Sudeste 15 Sudeste 0 1018.7 -0.5 89
2019-05-07 07:00:00 16.4 13 Sudeste 16 Sudeste 0 1018.4 -0.8 89
2019-05-07 06:00:00 16.7 9 Sudeste 12 Sudeste 0 1018.7 -0.9 86
2019-05-07 05:00:00 16.8 5 Sur 15 Sur 0 1019.2 -0.1 84
2019-05-07 04:00:00 16.8 9 Sur 16 Sur 0 1019.2 -0.4 81
2019-05-07 03:00:00 16.8 7 Sudoeste 13 Sur 0 1019.6 -0.4 81
2019-05-07 02:00:00 17.1 8 Sur 13 Sur 0 1019.3 -0.6 80
2019-05-07 01:00:00 16.7 4 Sudoeste 11 Oeste 0 1019.6 0.3 78
2019-05-07 00:00:00 17 4 Oeste 14 Noroeste 0 1020 0.8 76
2019-05-06 23:00:00 17.3 8 Oeste 16 Oeste 0 1019.9 1 76
2019-05-06 22:00:00 17.1 11 Oeste 21 Oeste 0 1019.3 0.3 80
2019-05-06 21:00:00 18.1 12 Oeste 20 Noroeste 0 1019.2 -0.1 75
2019-05-06 20:00:00 19.3 10 Oeste 23 Oeste 0 1018.9 -0.8 71
2019-05-06 19:00:00 19.1 12 Oeste 19 Oeste 0 1019 -1 69
2019-05-06 18:00:00 18.1 13 Oeste 24 Oeste 0 1019.3 -1 72
2019-05-06 17:00:00 18.2 14 Oeste 22 Oeste 0 1019.7 -0.5 70
2019-05-06 16:00:00 18.5 13 Oeste 24 Oeste 0 1020 -0.3 71
2019-05-06 15:00:00 19 12 Sudoeste 19 Oeste 0 1020.3 -0.2 70
2019-05-06 14:00:00 19.8 9 Sudoeste 18 Oeste 0 1020.2 0 67
2019-05-06 13:00:00 18.7 7 Sudoeste 15 Sur 0 1020.3 0.4 69
2019-05-06 12:00:00 18.6 6 Sur 15 Sur 0 1020.5 1 71
2019-05-06 11:00:00 18.1 4 Sudoeste 11 Sudoeste 0 1020.2 1.1 73
2019-05-06 10:00:00 17.2 3 Sudoeste 8 Sudeste 0 1019.9 1.1 75
2019-05-06 09:00:00 16.8 4 Sur 9 Oeste 0 1019.5 1.1 78
2019-05-06 08:00:00 16.6 4 Sudoeste 10 Sudoeste 0 1019.1 0.9 78
2019-05-06 07:00:00 16.2 6 Sudoeste 12 Sudoeste 0 1018.8 0.4 80
2019-05-06 06:00:00 16.4 5 Sudoeste 11 Sudoeste 0 1018.4 -0.3 80
2019-05-06 05:00:00 16.1 5 Sudoeste 12 Oeste 0 1018.2 -0.7 80
2019-05-06 04:00:00 16 3 Sudoeste 17 Sudoeste 0 1018.4 -0.3 78
2019-05-06 03:00:00 16.1 5 Sudoeste 17 Oeste 0 1018.7 0.1 76
2019-05-06 02:00:00 16.2 8 Sudoeste 15 Sudoeste 0 1018.9 0.3 76
2019-05-06 01:00:00 16.3 8 Oeste 15 Sudoeste 0 1018.7 0.6 77
2019-05-06 00:00:00 16.4 9 Oeste 19 Oeste 0 1018.6 0.8 77
2019-05-05 23:00:00 16.4 9 Oeste 15 Sudoeste 0 1018.6 1 76
2019-05-05 22:00:00 16.8 9 Oeste 18 Oeste 0 1018.1 0.2 73
2019-05-05 21:00:00 17.5 9 Oeste 19 Oeste 0 1017.8 0 69
2019-05-05 20:00:00 18.9 12 Oeste 22 Sudoeste 0 1017.6 -0.6 64
2019-05-05 19:00:00 19.7 11 Oeste 21 Sudoeste 0 1017.9 -0.8 62
2019-05-05 18:00:00 20.1 12 Oeste 23 Oeste 0 1017.8 -1 59
2019-05-05 17:00:00 20.3 14 Sudoeste 22 Oeste 0 1018.2 -0.6 58
2019-05-05 16:00:00 20.1 15 Sudoeste 25 Sudoeste 0 1018.7 0 58
2019-05-05 15:00:00 19.5 14 Sudoeste 26 Sudoeste 0 1018.8 0.6 61
2019-05-05 14:00:00 19.6 14 Sudoeste 22 Sudoeste 0 1018.8 1.1 60
2019-05-05 13:00:00 19 11 Sudoeste 20 Sudoeste 0 1018.7 1.5 62
2019-05-05 12:00:00 19 11 Sudoeste 22 Sur 0 1018.2 1.3 64
2019-05-05 11:00:00 18.2 10 Sur 20 Sur 0 1017.7 1.6 66
2019-05-05 10:00:00 17.3 9 Sudoeste 19 Sur 0 1017.2 1.8 70
2019-05-05 09:00:00 16.7 9 Sudoeste 15 Sudoeste 0 1016.9 1.4 73
2019-05-05 08:00:00 16.5 8 Sudoeste 15 Sudoeste 0 1016.1 0.6 74
2019-05-05 07:00:00 16.7 8 Sudoeste 15 Oeste 0 1015.4 0.1 75
2019-05-05 06:00:00 16.7 8 Sudoeste 15 Sudoeste 0 1015.5 0.1 75
2019-05-05 05:00:00 16.9 9 Sudoeste 16 Sudoeste 0 1015.5 -0.1 75
2019-05-05 04:00:00 17.1 4 Sudoeste 14 Sudoeste 0 1015.3 -0.5 75
2019-05-05 03:00:00 17.2 7 Sudoeste 16 Sudoeste 0 1015.4 -0.3 75
2019-05-05 02:00:00 17.2 8 Sudoeste 14 Sudoeste 0 1015.6 0.1 75
2019-05-05 01:00:00 17.1 8 Sudoeste 17 Oeste 0 1015.8 0.6 76
2019-05-05 00:00:00 17.2 10 Sudoeste 17 Sudoeste 0 1015.7 1.1 75
2019-05-04 23:00:00 17.5 8 Sudoeste 14 Sudoeste 0 1015.5 0.9 74
2019-05-04 22:00:00 17.7 7 Sudoeste 14 Sudoeste 0 1015.2 0.6 72
2019-05-04 21:00:00 18.4 8 Sudoeste 16 Oeste 0 1014.6 0.2 70
2019-05-04 20:00:00 19.1 9 Sudoeste 17 Sudoeste 0 1014.6 0 72
2019-05-04 19:00:00 19.2 8 Sudoeste 18 Sudoeste 0 1014.6 0 77
2019-05-04 18:00:00 19.2 12 Sudoeste 21 Sudoeste 0 1014.4 -0.3 75
2019-05-04 17:00:00 20.6 10 Sur 18 Sur 0 1014.6 0 73
2019-05-04 16:00:00 20.4 11 Sur 21 Sur 0 1014.6 -0.1 72
2019-05-04 15:00:00 20.7 10 Sur 20 Sur 0 1014.7 0.3 73
2019-05-04 14:00:00 20.4 12 Sur 23 Sur 0 1014.6 0.7 73
2019-05-04 13:00:00 19.9 12 Sur 22 Sur 0 1014.7 1 74
2019-05-04 12:00:00 19.3 12 Sur 19 Sur 0 1014.4 1.1 79
2019-05-04 11:00:00 18.7 12 Sur 24 Sur 0 1013.9 1.2 83
2019-05-04 10:00:00 18.3 11 Sur 21 Sur 0 1013.7 1.7 86
2019-05-04 09:00:00 17.8 11 Sur 19 Sur 0 1013.3 1.5 88
2019-05-04 08:00:00 17.5 12 Sur 19 Sur 0 1012.7 1.1 90
2019-05-04 07:00:00 17.2 11 Sur 18 Sur 0 1012 0.8 89
2019-05-04 06:00:00 17.4 11 Sudoeste 20 Sur 0 1011.8 0.1 89
2019-05-04 05:00:00 17.4 10 Sur 18 Sur 0 1011.6 -0.3 87
2019-05-04 04:00:00 17.5 11 Sur 23 Sudoeste 0 1011.2 -0.5 87
2019-05-04 03:00:00 17.3 11 Sudoeste 22 Sur 0 1011.7 0.1 87
2019-05-04 02:00:00 17.4 12 Sudoeste 22 Sudoeste 0 1011.9 0.6 87
2019-05-04 01:00:00 17.4 14 Sur 22 Sur 0 1011.7 1.2 87
2019-05-04 00:00:00 17.5 12 Sur 21 Sur 0 1011.6 1.8 88
2019-05-03 23:00:00 17.6 12 Sudoeste 21 Sudoeste 0 1011.3 1.5 88
2019-05-03 22:00:00 18.1 9 Sudoeste 25 Sudoeste 0 1010.5 0.6 86
2019-05-03 21:00:00 18.1 12 Sudoeste 23 Sudoeste 0 1009.8 -0.4 84
2019-05-03 20:00:00 18.8 12 Sudoeste 21 Sudoeste 0 1009.8 -0.4 81
2019-05-03 19:00:00 19.1 10 Sudoeste 21 Sur 0 1009.9 -0.6 80
2019-05-03 18:00:00 19.8 9 Sudoeste 19 Sur 0 1010.2 -0.2 79
2019-05-03 17:00:00 19.9 13 Sur 21 Sur 0 1010.2 -0.4 81
2019-05-03 16:00:00 20.2 14 Sur 31 Sur 0 1010.5 -0.3 79
2019-05-03 15:00:00 20.4 17 Sur 36 Sur 0 1010.4 -0.6 74
2019-05-03 14:00:00 19.6 22 Sur 42 Sur 0 1010.6 -0.1 75
2019-05-03 13:00:00 20.1 20 Sur 35 Sur 0 1010.8 0.3 69
2019-05-03 12:00:00 20.9 9 Sur 17 Sudoeste 0 1011 1 65
2019-05-03 11:00:00 21.2 6 Sudeste 19 Sudeste 0 1010.7 1.6 62
2019-05-03 10:00:00 19.9 10 Sudeste 23 Este 0 1010.5 1.7 63
2019-05-03 09:00:00 18.5 15 Este 35 Este 0 1010 1.3 67
2019-05-03 08:00:00 17.7 28 Este 40 Sudeste 0 1009.1 0.2 66
2019-05-03 07:00:00 17.6 32 Sudeste 46 Sudeste 0 1008.8 -0.3 64
2019-05-03 06:00:00 17.8 35 Sudeste 49 Este 0 1008.7 -0.7 67
2019-05-03 05:00:00 17.8 37 Este 54 Sudeste 0 1008.9 -0.7 68
2019-05-03 04:00:00 18.1 37 Sudeste 51 Sudeste 0 1009.1 -0.6 61
2019-05-03 03:00:00 18.6 38 Sudeste 58 Este 0 1009.4 -0.2 57
2019-05-03 02:00:00 19 39 Sudeste 59 Este 0 1009.6 0.4 56
2019-05-03 01:00:00 19.2 39 Este 54 Este 0 1009.7 1.1 55
2019-05-03 00:00:00 19.5 40 Sudeste 54 Sudeste 0 1009.6 1.2 51
2019-05-02 23:00:00 19.9 37 Sudeste 58 Sudeste 0 1009.2 1.5 50
2019-05-02 22:00:00 20.3 39 Sudeste 55 Sudeste 0 1008.6 0.9 48
2019-05-02 21:00:00 20.6 38 Sudeste 64 Sudeste 0 1008.4 0.8 51
2019-05-02 20:00:00 21.7 38 Sudeste 54 Sudeste 0 1007.7 -0.4 49
2019-05-02 19:00:00 23.1 42 Sudeste 59 Sudeste 0 1007.7 -0.5 44
2019-05-02 18:00:00 24 36 Este 53 Este 0 1007.6 -1.2 41
2019-05-02 17:00:00 23.7 33 Sudeste 50 Sudeste 0 1008.1 -1 46
2019-05-02 16:00:00 23.7 39 Sudeste 52 Sudeste 0 1008.2 -1 43
2019-05-02 15:00:00 23.8 40 Sudeste 56 Sudeste 0 1008.8 -0.8 40
2019-05-02 14:00:00 23.4 37 Este 54 Este 0 1009.1 -0.2 42
2019-05-02 13:00:00 23.2 40 Este 53 Este 0 1009.2 -0.2 42
2019-05-02 12:00:00 22.7 31 Este 45 Este 0 1009.6 0.6 44
2019-05-02 11:00:00 21.2 33 Este 44 Este 0 1009.3 0.9 49
2019-05-02 10:00:00 20.3 15 Este 28 Este 0 1009.4 1.2 52
2019-05-02 09:00:00 18.3 8 Este 18 Nordeste 0 1009 0.9 60
2019-05-02 08:00:00 17.4 10 Nordeste 18 Nordeste 0 1008.4 0.4 54
2019-05-02 07:00:00 17 13 Norte 21 Este 0 1008.2 -0.3 59
2019-05-02 06:00:00 19.1 15 Este 37 Este 0 1008.1 -0.6 50
2019-05-02 05:00:00 18.7 10 Nordeste 19 Nordeste 0 1008 -1.6 49
2019-05-02 04:00:00 19 11 Nordeste 28 Este 0 1008.5 -1.7 48
2019-05-02 03:00:00 19 22 Este 35 Este 0 1008.7 -1.5 50
2019-05-02 02:00:00 18.8 13 Este 25 Este 0 1009.6 -0.3 52
2019-05-02 01:00:00 18.7 10 Nordeste 32 Este 0 1010.2 1.1 54
2019-05-02 00:00:00 18.8 19 Este 25 Este 0 1010.2 2.1 56
2019-05-01 23:00:00 19.1 11 Nordeste 31 Este 0 1009.9 1.7 53
2019-05-01 22:00:00 20.3 20 Este 27 Este 0 1009.1 0.9 53
2019-05-01 21:00:00 22.1 19 Este 28 Este 0 1008.1 0 51
2019-05-01 20:00:00 23.2 24 Sudeste 41 Sudeste 0 1008.2 -0.8 48
2019-05-01 19:00:00 24.3 27 Sudeste 40 Este 0 1008.2 -1.4 44
2019-05-01 18:00:00 24.7 35 Sudeste 45 Sudeste 0 1008.1 -2 40
2019-05-01 17:00:00 24.3 32 Sudeste 42 Sudeste 0 1009 -1.5 42
2019-05-01 16:00:00 24.6 31 Sudeste 45 Sudeste 0 1009.6 -1.3 43
2019-05-01 15:00:00 24.3 35 Este 45 Este 0 1010.1 -1.1 43
2019-05-01 14:00:00 23.8 29 Este 37 Sudeste 0 1010.5 -0.6 47
2019-05-01 13:00:00 22.8 23 Este 39 Este 0 1010.9 -0.2 52
2019-05-01 12:00:00 21.4 30 Este 46 Este 0 1011.2 0.4 55
2019-05-01 11:00:00 20.7 32 Este 44 Este 0 1011.1 0.3 58
2019-05-01 10:00:00 19.3 28 Este 44 Este 0 1011.1 0.5 66
2019-05-01 09:00:00 18.2 28 Este 39 Este 0 1010.8 0.1 71
2019-05-01 08:00:00 16.9 15 Este 28 Este 0 1010.8 0 76
2019-05-01 07:00:00 16.8 17 Este 34 Este 0 1010.6 -0.4 79
2019-05-01 06:00:00 16.8 21 Este 31 Este 0 1010.7 -1 79
2019-05-01 05:00:00 17 26 Este 44 Este 0 1010.8 -1.5 79
2019-05-01 04:00:00 17.3 31 Este 48 Sudeste 0 1011 -1.7 72
2019-05-01 03:00:00 17.8 19 Este 27 Este 0 1011.7 -1.3 66
2019-05-01 02:00:00 17.9 12 Este 27 Este 0 1012.3 -0.8 67
2019-05-01 01:00:00 18.4 6 Este 23 Este 0 1012.7 -0.1 66
2019-05-01 00:00:00 18.7 4 Norte 10 Norte 0 1013 0.9 83
2019-04-30 23:00:00 19.6 6 Norte 12 Noroeste 0 1013.1 0.9 78
2019-04-30 22:00:00 19.5 5 Noroeste 10 Oeste 0 1012.8 0.1 69
2019-04-30 21:00:00 20.2 5 Noroeste 12 Sudoeste 0 1012.1 -0.9 66
2019-04-30 20:00:00 21.3 9 Oeste 16 Oeste 0 1012.2 -1.4 62
2019-04-30 19:00:00 21.2 10 Oeste 19 Oeste 0 1012.7 -1.5 63
2019-04-30 18:00:00 21.5 12 Oeste 21 Sudoeste 0 1013 -1.5 62
2019-04-30 17:00:00 20.5 14 Oeste 23 Oeste 0 1013.6 -1.5 66
2019-04-30 16:00:00 21.2 15 Oeste 24 Oeste 0 1014.2 -1.5 64
2019-04-30 15:00:00 22 13 Sudoeste 22 Sudoeste 0 1014.5 -1.3 59
2019-04-30 14:00:00 21.6 15 Sudoeste 21 Oeste 0 1015.1 -0.8 58
2019-04-30 13:00:00 23.6 4 Sur 14 Sudoeste 0 1015.7 -0.2 48
2019-04-30 12:00:00 23 6 Sudeste 14 Este 0 1015.8 0.2 52
2019-04-30 11:00:00 21.8 6 Este 12 Este 0 1015.9 0.8 54
2019-04-30 10:00:00 20.2 6 Este 15 Nordeste 0 1015.9 1.4 53
2019-04-30 09:00:00 17.9 8 Este 20 Este 0 1015.6 0.9 57
2019-04-30 08:00:00 16.9 9 Este 21 Este 0 1015.1 0.4 59
2019-04-30 07:00:00 17.2 13 Este 27 Este 0 1014.5 -0.5 60
2019-04-30 06:00:00 17.4 14 Este 33 Este 0 1014.7 -1.2 61
2019-04-30 05:00:00 17.4 26 Este 70 Este 0 1014.7 -1.7 63
2019-04-30 04:00:00 17.2 16 Sudeste 25 Este 0 1015 -1.3 65
2019-04-30 03:00:00 17.1 16 Este 23 Sudeste 0 1015.9 -0.2 61
2019-04-30 02:00:00 17.4 12 Sudeste 22 Sudeste 0 1016.4 0.3 57
2019-04-30 01:00:00 17.8 14 Este 18 Este 0 1016.3 1.1 54
2019-04-30 00:00:00 18.5 11 Este 21 Este 0 1016.1 1.6 48
2019-04-29 23:00:00 19.2 6 Este 16 Este 0 1016.1 1.8 48
2019-04-29 22:00:00 20 13 Este 23 Sudeste 0 1015.2 0.9 48
2019-04-29 21:00:00 21.2 16 Este 28 Este 0 1014.5 0.6 48
2019-04-29 20:00:00 23.5 8 Sudeste 21 Oeste 0 1014.3 0.1 42
2019-04-29 19:00:00 23.4 14 Oeste 41 Sudeste 0 1014.3 -0.3 47
2019-04-29 18:00:00 24.1 32 Sudeste 42 Este 0 1013.9 -0.8 36
2019-04-29 17:00:00 24.2 30 Sudeste 39 Sudeste 0 1014.2 -1.3 38
2019-04-29 16:00:00 24.5 30 Sudeste 39 Sudeste 0 1014.6 -1.4 36
2019-04-29 15:00:00 24.5 28 Este 39 Este 0 1014.7 -1.6 38
2019-04-29 14:00:00 23.8 22 Este 37 Sudeste 0 1015.5 -0.6 41
2019-04-29 13:00:00 22.9 25 Este 31 Este 0 1016 0.1 40
2019-04-29 12:00:00 23.1 21 Este 36 Este 0 1016.3 0.2 39
2019-04-29 11:00:00 21.4 21 Este 34 Este 0 1016.1 0.4 41
2019-04-29 10:00:00 20.2 8 Este 17 Nordeste 0 1015.9 0.5 39
2019-04-29 09:00:00 17 9 Nordeste 21 Nordeste 0 1016.1 0.6 48
2019-04-29 08:00:00 15.8 11 Nordeste 22 Nordeste 0 1015.7 -0.1 48
2019-04-29 07:00:00 17 13 Nordeste 55 Nordeste 0 1015.4 -0.7 42
2019-04-29 06:00:00 17.6 13 Este 27 Este 0 1015.5 -1.2 42
2019-04-29 05:00:00 17.8 15 Este 31 Este 0 1015.8 -1.5 40
2019-04-29 04:00:00 18 13 Este 32 Este 0 1016.1 -1.1 42
2019-04-29 03:00:00 18.1 11 Este 36 Este 0 1016.7 -0.3 43
2019-04-29 02:00:00 18.3 16 Este 30 Sudeste 0 1017.3 0.4 43
2019-04-29 01:00:00 18.3 22 Este 44 Este 0 1017.2 0.8 43
2019-04-29 00:00:00 18.5 32 Este 53 Este 0 1017 1 43
2019-04-28 23:00:00 18.7 40 Sudeste 58 Sudeste 0 1016.9 1.3 43
2019-04-28 22:00:00 19.2 33 Este 46 Este 0 1016.4 0.9 42
2019-04-28 21:00:00 20.1 31 Este 50 Sudeste 0 1016 0.2 41
2019-04-28 20:00:00 21.8 35 Este 49 Este 0 1015.6 -0.6 38
2019-04-28 19:00:00 22.8 36 Este 55 Este 0 1015.5 -1.2 36
2019-04-28 18:00:00 23.3 38 Este 52 Este 0 1015.8 -1.5 35
2019-04-28 17:00:00 23.6 34 Este 52 Este 0 1016.2 -1.5 36
2019-04-28 16:00:00 23.5 31 Este 54 Este 0 1016.7 -1.6 37
2019-04-28 15:00:00 22.9 39 Este 53 Este 0 1017.3 -1.1 38
2019-04-28 14:00:00 23 32 Este 48 Este 0 1017.7 -1 38
2019-04-28 13:00:00 22.7 37 Este 58 Este 0 1018.3 -0.3 38
2019-04-28 12:00:00 22.2 31 Este 53 Este 0 1018.4 -0.1 39
2019-04-28 11:00:00 21.1 33 Este 53 Este 0 1018.7 0.2 38
2019-04-28 10:00:00 20.1 30 Este 47 Este 0 1018.6 0.1 39
2019-04-28 09:00:00 18.9 10 Este 24 Este 0 1018.5 -0.3 42
2019-04-28 08:00:00 17.2 8 Este 25 Este 0 1018.5 -0.7 45
2019-04-28 07:00:00 17.3 13 Nordeste 29 Este 0 1018.5 -1 42
2019-04-28 06:00:00 17.5 15 Nordeste 27 Nordeste 0 1018.8 -1.4 42
2019-04-28 05:00:00 17.5 14 Nordeste 24 Este 0 1019.2 -1.3 46
2019-04-28 04:00:00 17.5 15 Este 34 Este 0 1019.5 -1.1 48
2019-04-28 03:00:00 17.7 25 Este 40 Este 0 1020.2 -0.8 47
2019-04-28 02:00:00 17.9 31 Este 43 Sudeste 0 1020.5 -0.2 46
2019-04-28 01:00:00 18.2 35 Sudeste 47 Este 0 1020.6 0.3 46
2019-04-28 00:00:00 18.5 30 Este 43 Sudeste 0 1021 1.4 45
2019-04-27 23:00:00 18.8 32 Este 47 Este 0 1020.7 1.1 45
2019-04-27 22:00:00 19.7 35 Este 53 Este 0 1020.3 0.6 41
2019-04-27 21:00:00 20.4 37 Este 54 Este 0 1019.6 -0.2 40
2019-04-27 20:00:00 21.5 43 Este 60 Este 0 1019.6 -0.6 36
2019-04-27 19:00:00 22.3 44 Este 57 Este 0 1019.7 -1 35
2019-04-27 18:00:00 22.9 40 Este 56 Este 0 1019.8 -1.7 35
2019-04-27 17:00:00 23.2 37 Este 49 Este 0 1020.2 -1.8 38
2019-04-27 16:00:00 23.3 37 Este 50 Este 0 1020.7 -1.9 37
2019-04-27 15:00:00 23.3 35 Este 47 Este 0 1021.5 -1.3 37
2019-04-27 14:00:00 23 39 Este 50 Este 0 1022 -0.6 39
2019-04-27 13:00:00 22.4 30 Este 44 Este 0 1022.6 0.1 41
2019-04-27 12:00:00 22.2 25 Este 36 Este 0 1022.8 0.4 41
2019-04-27 11:00:00 18.4 12 Nordeste 19 Nordeste 0 1022.6 0.4 56
2019-04-27 10:00:00 15.4 13 Norte 18 Norte 0 1022.5 0.5 71
2019-04-27 09:00:00 14.2 11 Norte 15 Norte 0 1022.4 0.4 73
2019-04-27 08:00:00 13.4 11 Norte 15 Norte 0 1022.2 0.3 75
2019-04-27 07:00:00 13.9 8 Norte 12 Este 0 1022 -0.1 74
2019-04-27 06:00:00 14.2 7 Norte 14 Nordeste 0 1022 -0.6 73
2019-04-27 05:00:00 14.4 9 Nordeste 14 Nordeste 0 1021.9 -1.1 70
2019-04-27 04:00:00 14.4 9 Nordeste 15 Nordeste 0 1022.1 -1.1 76
2019-04-27 03:00:00 15.5 8 Norte 12 Norte 0 1022.6 -0.9 76
2019-04-27 02:00:00 15.8 9 Nordeste 16 Norte 0 1023 -0.5 74
2019-04-27 01:00:00 16.5 14 Norte 23 Norte 0 1023.2 0.2 81
2019-04-27 00:00:00 16.5 19 Norte 23 Norte 0 1023.5 0.7 81
2019-04-26 23:00:00 17 16 Noroeste 26 Norte 0 1023.5 0.9 76
2019-04-26 22:00:00 17.4 20 Noroeste 29 Noroeste 0 1023 0.6 69
2019-04-26 21:00:00 18.2 19 Noroeste 32 Noroeste 0 1022.8 0.2 60
2019-04-26 20:00:00 19.1 18 Noroeste 32 Norte 0 1022.6 -0.5 59
2019-04-26 19:00:00 20.9 19 Norte 32 Norte 0 1022.4 -1.3 43
2019-04-26 18:00:00 20.7 21 Norte 31 Norte 0 1022.6 -1.4 44
2019-04-26 17:00:00 19.9 17 Noroeste 28 Norte 0 1023.1 -1.5 53
2019-04-26 16:00:00 19.7 19 Norte 27 Norte 0 1023.7 -1.3 50
2019-04-26 15:00:00 19 17 Norte 26 Norte 0 1024 -1.4 50
2019-04-26 14:00:00 18.2 17 Norte 25 Norte 0 1024.6 -0.6 51
2019-04-26 13:00:00 17.4 17 Norte 28 Norte 0 1025 0 56
2019-04-26 12:00:00 15.7 17 Norte 29 Norte 0 1025.4 0.7 61
2019-04-26 11:00:00 14.7 19 Norte 27 Norte 0 1025.2 1 66
2019-04-26 10:00:00 13.9 19 Norte 24 Norte 0 1025 1.3 71
2019-04-26 09:00:00 12.5 16 Norte 23 Norte 0 1024.7 1.5 78
2019-04-26 08:00:00 12.4 17 Norte 22 Norte 0 1024.2 1.3 77
2019-04-26 07:00:00 12.1 13 Norte 19 Norte 0 1023.7 0.8 76
2019-04-26 06:00:00 12.8 15 Norte 27 Norte 0 1023.2 0.2 73
2019-04-26 05:00:00 14 23 Norte 31 Norte 0 1022.9 -0.3 71
2019-04-26 04:00:00 14.4 21 Norte 34 Norte 0 1022.9 0.1 72
2019-04-26 03:00:00 15 24 Norte 32 Noroeste 0 1023 0.7 68
2019-04-26 02:00:00 15.5 23 Noroeste 34 Noroeste 0 1023.2 1.5 65
2019-04-26 01:00:00 16.2 21 Noroeste 32 Noroeste 0 1022.8 1.9 61
2019-04-26 00:00:00 16.7 19 Noroeste 30 Oeste 0 1022.3 2.4 64
2019-04-25 23:00:00 16.5 16 Oeste 37 Oeste 0 1021.7 2.3 69
2019-04-25 22:00:00 16.5 19 Oeste 33 Oeste 0 1020.9 1.7 68
2019-04-25 21:00:00 16.8 19 Oeste 33 Oeste 0 1019.9 1.1 65
2019-04-25 20:00:00 17.7 19 Oeste 41 Oeste 0 1019.4 0.9 61
2019-04-25 19:00:00 18.1 22 Oeste 38 Oeste 0 1019.2 1 59
2019-04-25 18:00:00 18.7 22 Oeste 36 Oeste 0 1018.8 1 54
2019-04-25 17:00:00 18.7 21 Oeste 39 Oeste 0 1018.5 0.8 54
2019-04-25 16:00:00 19.2 19 Oeste 34 Oeste 0 1018.2 0.5 58
2019-04-25 15:00:00 19.3 18 Oeste 31 Oeste 0 1017.8 0.5 64
2019-04-25 14:00:00 18.3 10 Oeste 20 Sudoeste 0 1017.7 1.1 68
2019-04-25 13:00:00 17.9 13 Oeste 21 Oeste 0 1017.7 1.6 69
2019-04-25 12:00:00 16.8 13 Noroeste 23 Oeste 0 1017.3 1.9 71
2019-04-25 11:00:00 17.2 11 Oeste 18 Oeste 0 1016.6 2.3 74
2019-04-25 10:00:00 16.5 6 Oeste 20 Oeste 0 1016.1 2.3 83
2019-04-25 09:00:00 16.2 15 Oeste 23 Oeste 0 1015.4 2 79
2019-04-25 08:00:00 15.9 14 Oeste 32 Oeste 0 1014.3 1 92
2019-04-25 07:00:00 15.3 16 Oeste 44 Sudoeste 0.7 1013.8 0.4 92
2019-04-25 06:00:00 16.9 22 Sudoeste 38 Sudoeste 0 1013.4 -0.4 87
2019-04-25 05:00:00 16.6 23 Sudoeste 43 Sudoeste 0.7 1013.3 -0.6 90
2019-04-25 04:00:00 17.2 21 Sudoeste 44 Sudoeste 0 1013.4 -0.5 87
2019-04-25 03:00:00 17.1 22 Sudoeste 41 Sudoeste 0 1013.8 -0.3 87
2019-04-25 02:00:00 16.7 20 Sudoeste 46 Sudoeste 0 1013.9 0.1 88
2019-04-25 01:00:00 16.8 23 Sudoeste 39 Sudoeste 0 1013.9 0.6 86
2019-04-25 00:00:00 16.8 24 Sudoeste 46 Sudoeste 0 1014.1 1.5 86
2019-04-24 23:00:00 17 22 Sudoeste 40 Sudoeste 0 1013.8 1.3 85
2019-04-24 22:00:00 17.1 25 Sudoeste 49 Sudoeste 0 1013.3 0.9 83
2019-04-24 21:00:00 17.1 21 Sudoeste 42 Sudoeste 0 1012.6 0.2 80
2019-04-24 20:00:00 17.5 22 Sudoeste 46 Sudoeste 0 1012.5 0.5 77
2019-04-24 19:00:00 17.4 24 Sudoeste 49 Sudoeste 0 1012.4 0.1 74
2019-04-24 18:00:00 18.3 27 Sudoeste 45 Sur 0 1012.4 0.1 69
2019-04-24 17:00:00 18.3 26 Sudoeste 44 Sudoeste 0 1012 -0.3 68
2019-04-24 16:00:00 17.5 30 Sur 46 Sur 0 1012.3 0.1 71
2019-04-24 15:00:00 17.7 27 Sudoeste 47 Sur 0 1012.3 0.5 69
2019-04-24 14:00:00 17.5 27 Sudoeste 46 Sudoeste 0 1012.3 1 65
2019-04-24 13:00:00 17.4 23 Sudoeste 45 Sudoeste 0 1012.2 1.4 65
2019-04-24 12:00:00 17.2 24 Sudoeste 44 Sudoeste 0 1011.8 1.3 66
2019-04-24 11:00:00 17 20 Sudoeste 37 Sudoeste 0 1011.3 1.7 63
2019-04-24 10:00:00 16.7 21 Sudoeste 39 Sudoeste 0 1010.8 1.6 63
2019-04-24 09:00:00 16.4 22 Sudoeste 39 Sudoeste 0 1010.5 1.7 63
2019-04-24 08:00:00 15.5 23 Sudoeste 37 Sudoeste 0 1009.6 0.8 66
2019-04-24 07:00:00 15.1 18 Sudoeste 38 Sudoeste 0 1009.2 0.3 65
2019-04-24 06:00:00 15.4 21 Sudoeste 37 Oeste 0 1008.8 -0.3 63
2019-04-24 05:00:00 15.1 19 Sudoeste 33 Sudoeste 0 1008.8 -0.6 63
2019-04-24 04:00:00 15 19 Oeste 32 Sudoeste 0 1008.9 0 62
2019-04-24 03:00:00 14.9 21 Oeste 37 Sudoeste 0 1009.1 0.2 60
2019-04-24 02:00:00 14.9 28 Oeste 44 Oeste 0 1009.4 0.7 60
2019-04-24 01:00:00 14.9 19 Oeste 45 Oeste 0 1008.9 1 61
2019-04-24 00:00:00 15.1 16 Oeste 34 Oeste 0 1008.9 1.8 63
2019-04-23 23:00:00 15.1 19 Oeste 37 Oeste 0 1008.7 1.9 60
2019-04-23 22:00:00 15.1 20 Oeste 41 Sudoeste 0 1007.9 1.4 58
2019-04-23 21:00:00 15.3 21 Oeste 37 Oeste 0 1007.1 1 57
2019-04-23 20:00:00 15.9 23 Oeste 40 Oeste 0 1006.8 1 53
2019-04-23 19:00:00 16.6 25 Oeste 43 Oeste 0 1006.5 0.7 50
2019-04-23 18:00:00 16.8 22 Oeste 42 Oeste 0 1006.1 0.8 49
2019-04-23 17:00:00 16.9 22 Oeste 37 Oeste 0 1005.8 0.5 51
2019-04-23 16:00:00 17.4 21 Oeste 38 Oeste 0 1005.8 0.7 49
2019-04-23 15:00:00 16.7 21 Oeste 39 Oeste 0 1005.3 0.6 51
2019-04-23 14:00:00 16 16 Oeste 28 Oeste 0 1005.3 1.1 54
2019-04-23 13:00:00 15.6 21 Noroeste 32 Noroeste 0 1005.1 2 57
2019-04-23 12:00:00 15.1 22 Noroeste 35 Noroeste 0 1004.7 2.5 60
2019-04-23 11:00:00 14.5 19 Noroeste 38 Noroeste 0 1004.2 2.5 59
2019-04-23 10:00:00 14.3 18 Noroeste 37 Noroeste 0 1003.1 1.7 63
2019-04-23 09:00:00 13.7 16 Noroeste 36 Noroeste 0.1 1002.2 1.6 80
2019-04-23 08:00:00 13.7 17 Noroeste 30 Noroeste 0.2 1001.7 1.1 78
2019-04-23 07:00:00 13 18 Noroeste 36 Noroeste 1.6 1001.4 0 91
2019-04-23 06:00:00 14.2 26 Noroeste 50 Sudoeste 0.5 1000.6 -1.9 90
2019-04-23 05:00:00 15.9 20 Sudoeste 38 Sudoeste 0.9 1000.6 -2.8 83
2019-04-23 04:00:00 16.8 15 Sudoeste 33 Sudoeste 0 1001.4 -2.3 76
2019-04-23 03:00:00 16.6 19 Sudoeste 32 Sudoeste 0 1002.5 -1.6 74
2019-04-23 02:00:00 16.7 17 Sudoeste 31 Sudoeste 0 1003.4 -0.6 76
2019-04-23 01:00:00 16.7 15 Sudoeste 34 Sudoeste 0 1003.7 -0.1 77
2019-04-23 00:00:00 16.7 18 Sudoeste 32 Sudoeste 0 1004.1 0.4 78